Time;durP1;ratioP1;P1;durP2;ratioP2;P2;SDS_P1;SDS_P2;PMS_P1;PMS_P2;Temp;Humidity;BMP_temperature;BMP_pressure;BME280_temperature;BME280_humidity;BME280_pressure;Samples;Min_cycle;Max_cycle;Signal;HPM_P1;HPM_P2
2024/02/05 00:01:34;;;;;;;9.10;5.97;;;3.00;99.90;;;;;;4969334;28;20209;-60
2024/02/05 00:04:00;;;;;;;10.50;5.53;;;3.00;99.90;;;;;;4965852;28;20444;-59
2024/02/05 00:06:25;;;;;;;9.73;5.57;;;3.00;99.90;;;;;;4968509;28;20425;-59
2024/02/05 00:08:51;;;;;;;11.70;5.50;;;2.90;99.90;;;;;;4969185;28;20217;-60
2024/02/05 00:11:17;;;;;;;8.80;5.37;;;2.90;99.90;;;;;;4967198;28;20649;-59
2024/02/05 00:13:43;;;;;;;8.27;5.90;;;2.90;99.90;;;;;;4968433;28;20435;-59
2024/02/05 00:16:09;;;;;;;13.10;6.03;;;3.00;99.90;;;;;;4967698;28;20177;-59
2024/02/05 00:18:35;;;;;;;13.93;5.50;;;3.00;99.90;;;;;;4963409;28;20461;-60
2024/02/05 00:21:01;;;;;;;10.23;5.50;;;2.90;99.90;;;;;;4969592;28;20419;-59
2024/02/05 00:23:26;;;;;;;11.00;5.70;;;2.90;99.90;;;;;;4966869;28;20181;-60
2024/02/05 00:25:52;;;;;;;9.87;4.53;;;2.90;99.90;;;;;;4969033;28;20232;-59
2024/02/05 00:28:18;;;;;;;7.77;4.73;;;2.90;99.90;;;;;;4966742;28;20720;-60
2024/02/05 00:30:43;;;;;;;15.53;5.50;;;2.80;99.90;;;;;;4966739;28;20190;-60
2024/02/05 00:33:09;;;;;;;9.70;6.00;;;2.80;99.90;;;;;;4968393;28;20178;-59
2024/02/05 00:35:35;;;;;;;17.53;6.17;;;2.80;99.90;;;;;;4965631;28;20261;-60
2024/02/05 00:38:00;;;;;;;10.40;5.10;;;2.80;99.90;;;;;;4968668;28;20213;-59
2024/02/05 00:40:26;;;;;;;8.67;5.83;;;2.80;99.90;;;;;;4968961;28;20261;-59
2024/02/05 00:42:51;;;;;;;12.90;5.37;;;2.70;99.90;;;;;;4969740;28;20196;-60
2024/02/05 00:45:18;;;;;;;13.70;6.70;;;2.70;99.90;;;;;;4966406;28;20190;-59
2024/02/05 00:47:44;;;;;;;11.70;5.10;;;2.70;99.90;;;;;;4967782;28;20216;-59
2024/02/05 00:50:10;;;;;;;8.20;5.23;;;2.60;99.90;;;;;;4971097;28;21007;-59
2024/02/05 00:52:35;;;;;;;13.17;5.73;;;2.60;99.90;;;;;;4969808;28;20174;-59
2024/02/05 00:55:01;;;;;;;8.80;5.10;;;2.60;99.90;;;;;;4973009;28;20930;-59
2024/02/05 00:57:30;;;;;;;14.73;5.77;;;2.60;99.90;;;;;;4972526;28;20185;-60
2024/02/05 00:59:56;;;;;;;9.40;5.67;;;2.50;99.90;;;;;;4970453;28;20176;-59
2024/02/05 01:02:23;;;;;;;12.67;6.30;;;2.50;99.90;;;;;;4969825;28;20491;-60
2024/02/05 01:04:49;;;;;;;12.37;6.67;;;2.50;99.90;;;;;;4971029;28;20429;-60
2024/02/05 01:07:15;;;;;;;13.03;5.53;;;2.40;99.90;;;;;;4971975;28;21164;-59
2024/02/05 01:09:41;;;;;;;8.73;5.70;;;2.40;99.90;;;;;;4968395;28;20540;-60
2024/02/05 01:12:07;;;;;;;11.67;5.53;;;2.50;99.90;;;;;;4972024;28;20950;-59
2024/02/05 01:14:33;;;;;;;9.07;5.00;;;2.40;99.90;;;;;;4972016;28;20265;-59
2024/02/05 01:16:59;;;;;;;8.33;4.97;;;2.40;99.90;;;;;;4971646;28;21018;-59
2024/02/05 01:19:25;;;;;;;7.63;4.80;;;2.40;99.90;;;;;;4965216;28;20190;-59
2024/02/05 01:21:50;;;;;;;7.40;5.03;;;2.40;99.90;;;;;;4963039;28;20413;-60
2024/02/05 01:24:16;;;;;;;7.10;4.97;;;2.30;99.90;;;;;;4967720;28;20241;-59
2024/02/05 01:26:42;;;;;;;10.63;4.47;;;2.30;99.90;;;;;;4974125;28;20193;-59
2024/02/05 01:29:08;;;;;;;8.87;4.87;;;2.30;99.90;;;;;;4971218;28;20543;-59
2024/02/05 01:31:34;;;;;;;6.63;4.47;;;2.30;99.90;;;;;;4967855;28;20656;-59
2024/02/05 01:34:00;;;;;;;6.00;4.43;;;2.30;99.90;;;;;;4967071;28;20638;-60
2024/02/05 01:36:26;;;;;;;4.77;4.10;;;2.20;99.90;;;;;;4969368;28;20413;-60
2024/02/05 01:38:52;;;;;;;8.40;4.90;;;2.20;99.90;;;;;;4969732;28;20446;-59
2024/02/05 01:41:17;;;;;;;7.90;5.00;;;2.20;99.90;;;;;;4972800;28;20743;-59
2024/02/05 01:43:43;;;;;;;12.40;5.10;;;2.20;99.90;;;;;;4971292;28;20196;-59
2024/02/05 01:46:19;;;;;;;6.70;4.67;;;2.20;99.90;;;;;;4973439;28;20922;-59
2024/02/05 01:48:45;;;;;;;6.10;4.30;;;2.10;99.90;;;;;;4971336;28;20221;-59
2024/02/05 01:51:16;;;;;;;5.70;4.23;;;2.10;99.90;;;;;;4969340;28;20437;-59
2024/02/05 01:53:43;;;;;;;8.13;4.83;;;2.10;99.90;;;;;;4969662;28;20454;-60
2024/02/05 01:56:10;;;;;;;6.63;4.57;;;2.00;99.90;;;;;;4968194;28;20444;-59
2024/02/05 01:58:39;;;;;;;9.67;5.40;;;2.00;99.90;;;;;;4970032;28;20465;-59
2024/02/05 02:01:06;;;;;;;10.17;5.00;;;2.00;99.90;;;;;;4973860;28;20417;-59
2024/02/05 02:03:34;;;;;;;6.40;5.00;;;1.90;99.90;;;;;;4972715;28;20420;-60
2024/02/05 02:06:00;;;;;;;8.00;5.10;;;1.90;99.90;;;;;;4967385;28;20438;-59
2024/02/05 02:08:28;;;;;;;7.70;5.93;;;1.90;99.90;;;;;;4967609;28;21054;-59
2024/02/05 02:10:53;;;;;;;7.13;4.90;;;1.90;99.90;;;;;;4972515;28;20544;-59
2024/02/05 02:13:19;;;;;;;7.23;4.97;;;1.90;99.90;;;;;;4967218;28;20919;-60
2024/02/05 02:15:47;;;;;;;7.00;5.10;;;1.90;99.90;;;;;;4969317;28;20188;-60
2024/02/05 02:18:14;;;;;;;7.07;4.90;;;1.90;99.90;;;;;;4966798;28;20236;-59
2024/02/05 02:20:45;;;;;;;6.37;4.80;;;1.90;99.90;;;;;;4968162;28;20444;-59
2024/02/05 02:23:29;;;;;;;7.23;4.57;;;1.90;99.90;;;;;;4970369;28;20420;-59
2024/02/05 02:25:56;;;;;;;5.63;3.97;;;1.90;99.90;;;;;;4962199;28;20419;-60
2024/02/05 02:28:22;;;;;;;6.73;3.90;;;1.90;99.90;;;;;;4963696;28;20507;-59
2024/02/05 02:30:50;;;;;;;4.87;4.03;;;1.90;99.90;;;;;;4966425;28;20465;-59
2024/02/05 02:33:18;;;;;;;6.60;4.77;;;1.90;99.90;;;;;;4970338;28;20413;-59
2024/02/05 02:36:02;;;;;;;5.80;4.10;;;1.90;99.90;;;;;;4972169;28;20428;-59
2024/02/05 02:38:50;;;;;;;7.30;4.00;;;1.90;99.90;;;;;;4965738;28;20527;-60
2024/02/05 02:41:24;;;;;;;6.37;3.87;;;1.90;99.90;;;;;;4968088;28;21024;-59
2024/02/05 02:43:56;;;;;;;6.40;4.23;;;2.00;99.90;;;;;;4964819;28;20453;-59
2024/02/05 02:46:23;;;;;;;4.27;3.50;;;2.00;99.90;;;;;;4963452;28;20525;-59
2024/02/05 02:48:49;;;;;;;8.13;4.13;;;2.00;99.90;;;;;;4968895;28;20992;-59
2024/02/05 02:51:15;;;;;;;7.17;3.27;;;2.00;99.90;;;;;;4967082;28;20452;-60
2024/02/05 02:53:41;;;;;;;6.17;3.37;;;2.00;99.90;;;;;;4973836;28;20435;-60
2024/02/05 02:56:07;;;;;;;4.43;3.43;;;2.00;99.90;;;;;;4964928;28;20177;-59
2024/02/05 02:58:33;;;;;;;5.53;3.20;;;2.00;99.90;;;;;;4966485;28;20201;-59
2024/02/05 03:00:58;;;;;;;5.00;3.60;;;2.00;99.90;;;;;;4968122;28;20421;-59
2024/02/05 03:03:24;;;;;;;8.03;3.67;;;1.90;99.90;;;;;;4964737;28;20169;-59
2024/02/05 03:05:50;;;;;;;7.80;3.87;;;1.90;99.90;;;;;;4967351;28;20694;-58
2024/02/05 03:08:16;;;;;;;7.00;3.30;;;1.90;99.90;;;;;;4964817;28;20293;-59
2024/02/05 03:10:42;;;;;;;8.40;3.73;;;1.80;99.90;;;;;;4969715;28;20497;-60
2024/02/05 03:13:08;;;;;;;8.07;3.73;;;1.80;99.90;;;;;;4963578;28;20526;-59
2024/02/05 03:15:33;;;;;;;6.60;4.63;;;1.80;99.90;;;;;;4969468;28;20193;-59
2024/02/05 03:17:59;;;;;;;10.57;4.37;;;1.70;99.90;;;;;;4968803;28;20252;-59
2024/02/05 03:20:38;;;;;;;6.10;4.13;;;1.70;99.90;;;;;;4967221;28;20186;-59
2024/02/05 03:23:06;;;;;;;4.47;3.57;;;1.70;99.90;;;;;;4966635;28;20600;-58
2024/02/05 03:25:32;;;;;;;6.60;3.90;;;1.70;99.90;;;;;;4973546;28;20443;-59
2024/02/05 03:28:02;;;;;;;5.20;3.50;;;1.80;99.90;;;;;;4965743;28;20480;-60
2024/02/05 03:30:31;;;;;;;4.87;3.77;;;1.80;99.90;;;;;;4969633;28;20419;-59
2024/02/05 03:32:58;;;;;;;10.30;4.00;;;1.80;99.90;;;;;;4967289;28;20409;-59
2024/02/05 03:35:25;;;;;;;4.60;3.60;;;1.70;99.90;;;;;;4962802;28;20984;-59
2024/02/05 03:37:51;;;;;;;5.07;3.90;;;1.70;99.90;;;;;;4963908;28;20437;-59
2024/02/05 03:40:17;;;;;;;5.63;3.87;;;1.70;99.90;;;;;;4970914;28;20554;-58
2024/02/05 03:42:43;;;;;;;8.73;4.17;;;1.70;99.90;;;;;;4979002;28;20428;-59
2024/02/05 03:45:09;;;;;;;7.07;4.53;;;1.60;99.90;;;;;;4969638;28;20425;-58
2024/02/05 03:47:35;;;;;;;9.63;3.70;;;1.60;99.90;;;;;;4968770;28;20451;-59
2024/02/05 03:50:00;;;;;;;5.13;3.90;;;1.60;99.90;;;;;;4966464;28;20465;-59
2024/02/05 03:52:27;;;;;;;8.20;4.73;;;1.60;99.90;;;;;;4965728;28;20413;-59
2024/02/05 03:54:53;;;;;;;8.00;4.23;;;1.60;99.90;;;;;;4969181;28;20194;-59
2024/02/05 03:57:19;;;;;;;5.30;4.20;;;1.60;99.90;;;;;;4964520;28;21014;-59
2024/02/05 03:59:45;;;;;;;7.70;4.07;;;1.60;99.90;;;;;;4968579;28;20268;-59
2024/02/05 04:02:11;;;;;;;7.13;4.23;;;1.60;99.90;;;;;;4967210;28;20532;-59
2024/02/05 04:04:37;;;;;;;9.37;5.10;;;1.60;99.90;;;;;;4967580;28;20924;-60
2024/02/05 04:07:03;;;;;;;6.20;5.03;;;1.60;99.90;;;;;;4964880;28;20285;-59
2024/02/05 04:09:29;;;;;;;5.37;4.30;;;1.60;99.90;;;;;;4963213;28;20537;-59
2024/02/05 04:11:55;;;;;;;7.20;4.40;;;1.60;99.90;;;;;;4966625;28;20452;-59
2024/02/05 04:14:21;;;;;;;7.80;4.80;;;1.60;99.90;;;;;;4972648;28;20185;-59
2024/02/05 04:16:50;;;;;;;14.13;4.60;;;1.60;99.90;;;;;;4966438;28;20256;-59
2024/02/05 04:19:16;;;;;;;9.43;4.20;;;1.60;99.90;;;;;;4973207;28;20445;-59
2024/02/05 04:21:42;;;;;;;7.67;4.40;;;1.60;99.90;;;;;;4972061;28;20980;-59
2024/02/05 04:24:08;;;;;;;5.50;4.50;;;1.60;99.90;;;;;;4971736;28;20448;-59
2024/02/05 04:26:33;;;;;;;8.47;4.33;;;1.50;99.90;;;;;;4970370;28;20182;-59
2024/02/05 04:28:59;;;;;;;6.40;4.50;;;1.50;99.90;;;;;;4972472;28;20329;-59
2024/02/05 04:31:25;;;;;;;5.23;3.80;;;1.40;99.90;;;;;;4965151;28;20182;-58
2024/02/05 04:33:50;;;;;;;6.00;4.20;;;1.30;99.90;;;;;;4968805;28;20232;-59
2024/02/05 04:36:16;;;;;;;5.57;3.53;;;1.30;99.90;;;;;;4966509;28;20626;-58
2024/02/05 04:38:43;;;;;;;7.33;3.50;;;1.20;99.90;;;;;;4970417;28;20661;-59
2024/02/05 04:41:11;;;;;;;6.23;3.17;;;1.20;99.90;;;;;;4971652;28;20220;-58
2024/02/05 04:43:38;;;;;;;7.53;4.10;;;1.20;99.90;;;;;;4970348;28;20431;-59
2024/02/05 04:46:07;;;;;;;4.07;3.40;;;1.20;99.90;;;;;;4970610;28;20425;-58
2024/02/05 04:48:32;;;;;;;5.23;3.50;;;1.20;99.90;;;;;;4967650;28;20477;-59
2024/02/05 04:50:59;;;;;;;9.57;4.57;;;1.10;99.90;;;;;;4970177;28;20427;-58
2024/02/05 04:53:25;;;;;;;5.20;3.43;;;1.10;99.90;;;;;;4956284;28;20187;-59
2024/02/05 04:55:51;;;;;;;6.60;3.90;;;1.10;99.90;;;;;;4965236;28;20470;-59
2024/02/05 04:58:17;;;;;;;7.67;4.50;;;1.00;99.90;;;;;;4967908;28;20482;-59
2024/02/05 05:00:42;;;;;;;10.33;4.10;;;1.00;99.90;;;;;;4970378;28;20211;-59
2024/02/05 05:03:08;;;;;;;6.57;3.80;;;1.00;99.90;;;;;;4966977;28;20192;-58
2024/02/05 05:05:33;;;;;;;3.97;3.07;;;0.90;99.90;;;;;;4961745;28;20177;-59
2024/02/05 05:07:59;;;;;;;11.00;4.03;;;0.90;99.90;;;;;;4967266;28;20574;-58
2024/02/05 05:10:24;;;;;;;9.20;4.70;;;0.90;99.90;;;;;;4964410;28;20238;-57
2024/02/05 05:12:50;;;;;;;4.37;3.90;;;0.90;99.90;;;;;;4964726;28;20180;-57
2024/02/05 05:15:16;;;;;;;9.43;4.47;;;0.90;99.90;;;;;;4966230;28;20205;-56
2024/02/05 05:17:43;;;;;;;8.90;4.80;;;0.90;99.90;;;;;;4966438;28;20205;-56
2024/02/05 05:20:10;;;;;;;6.53;4.70;;;0.90;99.90;;;;;;4970785;28;20440;-56
2024/02/05 05:22:35;;;;;;;12.00;4.60;;;0.90;99.90;;;;;;4967316;28;20449;-59
2024/02/05 05:25:01;;;;;;;12.10;5.37;;;0.90;99.90;;;;;;4967244;28;21007;-60
2024/02/05 05:27:27;;;;;;;7.50;4.80;;;0.90;99.90;;;;;;4964601;28;20208;-59
2024/02/05 05:29:52;;;;;;;10.83;5.53;;;0.90;99.90;;;;;;4963928;28;21697;-59
2024/02/05 05:32:18;;;;;;;10.60;5.87;;;0.90;99.90;;;;;;4968957;28;20180;-60
2024/02/05 05:34:43;;;;;;;25.83;7.77;;;0.90;99.90;;;;;;4967651;28;20189;-59
2024/02/05 05:37:09;;;;;;;11.80;5.70;;;0.90;99.90;;;;;;4963463;28;20218;-58
2024/02/05 05:39:35;;;;;;;16.07;6.33;;;1.00;99.90;;;;;;4974046;28;20726;-59
2024/02/05 05:42:01;;;;;;;14.80;7.23;;;1.00;99.90;;;;;;4966373;28;20181;-61
2024/02/05 05:44:27;;;;;;;9.90;6.20;;;0.90;99.90;;;;;;4968279;28;20440;-58
2024/02/05 05:46:55;;;;;;;15.27;6.93;;;0.90;99.90;;;;;;4969400;28;20467;-60
2024/02/05 05:49:20;;;;;;;14.87;7.60;;;0.90;99.90;;;;;;4971613;28;20460;-59
2024/02/05 05:51:46;;;;;;;11.63;7.53;;;0.90;99.90;;;;;;4966824;28;20416;-59
2024/02/05 05:54:12;;;;;;;10.83;6.70;;;0.90;99.90;;;;;;4967617;28;20701;-58
2024/02/05 05:56:37;;;;;;;12.70;6.93;;;0.80;99.90;;;;;;4963796;28;20212;-59
2024/02/05 05:59:03;;;;;;;16.00;6.77;;;0.80;99.90;;;;;;4965307;28;20207;-59
2024/02/05 06:01:28;;;;;;;12.80;7.27;;;0.80;99.90;;;;;;4965156;28;20182;-59
2024/02/05 06:03:54;;;;;;;10.40;7.07;;;0.80;99.90;;;;;;4969704;28;20189;-59
2024/02/05 06:06:19;;;;;;;14.77;6.87;;;0.70;99.90;;;;;;4966199;28;20185;-59
2024/02/05 06:08:45;;;;;;;13.17;5.80;;;0.70;99.90;;;;;;4964383;28;20221;-59
2024/02/05 06:11:10;;;;;;;17.80;5.67;;;0.70;99.90;;;;;;4968365;28;20186;-58
2024/02/05 06:13:36;;;;;;;5.77;4.63;;;0.80;99.90;;;;;;4968728;28;20200;-59
2024/02/05 06:16:06;;;;;;;9.43;4.33;;;0.80;99.90;;;;;;4968269;28;20176;-61
2024/02/05 06:18:31;;;;;;;7.73;4.33;;;0.90;99.90;;;;;;4970831;28;20202;-59
2024/02/05 06:20:57;;;;;;;5.70;4.30;;;0.90;99.90;;;;;;4975192;28;20436;-59
2024/02/05 06:23:22;;;;;;;12.57;5.90;;;1.00;99.90;;;;;;4961188;28;20570;-58
2024/02/05 06:25:48;;;;;;;10.63;6.00;;;1.00;99.90;;;;;;4966762;28;20727;-59
2024/02/05 06:28:14;;;;;;;7.50;5.17;;;1.00;99.90;;;;;;4970456;28;20283;-58
2024/02/05 06:30:42;;;;;;;11.20;4.60;;;1.00;99.90;;;;;;4966372;28;20185;-59
2024/02/05 06:33:08;;;;;;;8.00;4.57;;;0.90;99.90;;;;;;4967767;28;20211;-59
2024/02/05 06:35:34;;;;;;;11.00;5.90;;;0.90;99.90;;;;;;4970335;28;20801;-59
2024/02/05 06:37:59;;;;;;;14.20;7.20;;;1.00;99.90;;;;;;4968077;28;20634;-58
2024/02/05 06:40:25;;;;;;;8.23;3.77;;;0.90;99.90;;;;;;4963665;28;20237;-59
2024/02/05 06:42:51;;;;;;;5.23;3.10;;;1.00;99.90;;;;;;4968031;28;20181;-58
2024/02/05 06:45:17;;;;;;;12.00;3.60;;;1.00;99.90;;;;;;4971826;28;20175;-59
2024/02/05 06:47:42;;;;;;;7.80;4.60;;;1.00;99.90;;;;;;4966196;28;20520;-59
2024/02/05 06:50:10;;;;;;;7.00;3.90;;;1.00;99.90;;;;;;4970036;28;20272;-58
2024/02/05 06:52:35;;;;;;;15.63;6.70;;;1.00;99.90;;;;;;4968488;28;20189;-59
2024/02/05 06:55:01;;;;;;;30.43;7.87;;;1.00;99.90;;;;;;4966117;28;20437;-60
2024/02/05 06:57:26;;;;;;;22.80;9.77;;;1.00;99.90;;;;;;4970423;28;20661;-59
2024/02/05 06:59:52;;;;;;;15.90;8.50;;;0.90;99.90;;;;;;4968283;28;20753;-59
2024/02/05 07:02:18;;;;;;;19.50;7.20;;;0.90;99.90;;;;;;4964974;28;20199;-59
2024/02/05 07:04:43;;;;;;;41.70;8.70;;;0.90;99.90;;;;;;4970481;28;20852;-59
2024/02/05 07:07:09;;;;;;;52.60;9.80;;;0.80;99.90;;;;;;4963487;28;20214;-58
2024/02/05 07:09:36;;;;;;;21.13;7.30;;;0.80;99.90;;;;;;4970181;28;20279;-59
2024/02/05 07:12:02;;;;;;;20.53;9.20;;;0.80;99.90;;;;;;4970277;28;20620;-59
2024/02/05 07:14:28;;;;;;;18.77;7.80;;;0.80;99.90;;;;;;4967906;28;20443;-59
2024/02/05 07:16:53;;;;;;;17.77;7.77;;;0.80;99.90;;;;;;4965803;28;21028;-59
2024/02/05 07:19:19;;;;;;;14.53;7.77;;;0.80;99.90;;;;;;4964799;28;20508;-59
2024/02/05 07:21:45;;;;;;;22.70;8.07;;;0.90;99.90;;;;;;4964904;28;20193;-59
2024/02/05 07:24:11;;;;;;;23.37;8.40;;;0.80;99.90;;;;;;4965893;28;20192;-60
2024/02/05 07:26:36;;;;;;;116.80;10.50;;;0.90;99.90;;;;;;4966633;28;20448;-59
2024/02/05 07:29:02;;;;;;;22.70;7.70;;;0.90;99.90;;;;;;4967946;28;20200;-59
2024/02/05 07:31:27;;;;;;;14.97;7.43;;;0.90;99.90;;;;;;4970298;28;20172;-59
2024/02/05 07:33:53;;;;;;;11.97;7.47;;;0.90;99.90;;;;;;4969784;28;20180;-58
2024/02/05 07:36:18;;;;;;;7.97;5.27;;;1.00;99.90;;;;;;4971139;28;20208;-59
2024/02/05 07:38:44;;;;;;;5.93;4.60;;;1.00;99.90;;;;;;4970140;28;20212;-59
2024/02/05 07:41:10;;;;;;;6.93;4.77;;;1.10;99.90;;;;;;4970551;28;20253;-59
2024/02/05 07:43:39;;;;;;;10.43;4.37;;;1.10;99.90;;;;;;4967546;28;20182;-59
2024/02/05 07:46:06;;;;;;;9.20;4.47;;;1.20;99.90;;;;;;4969888;28;20417;-59
2024/02/05 07:48:32;;;;;;;17.77;5.23;;;1.20;99.90;;;;;;4965454;28;20975;-59
2024/02/05 07:50:57;;;;;;;12.17;5.20;;;1.20;99.90;;;;;;4968186;28;20436;-61
2024/02/05 07:53:23;;;;;;;9.80;4.83;;;1.30;99.90;;;;;;4969146;28;20173;-59
2024/02/05 07:55:51;;;;;;;8.83;5.40;;;1.30;99.90;;;;;;4967518;28;20180;-59
2024/02/05 07:58:17;;;;;;;11.30;5.90;;;1.40;99.90;;;;;;4967945;28;20207;-59
2024/02/05 08:00:43;;;;;;;10.87;5.20;;;1.40;99.90;;;;;;4963211;28;20441;-60
2024/02/05 08:03:08;;;;;;;14.57;5.33;;;1.50;99.90;;;;;;4966882;28;20815;-59
2024/02/05 08:05:34;;;;;;;7.80;4.90;;;1.50;99.90;;;;;;4965957;28;20669;-59
2024/02/05 08:08:00;;;;;;;8.63;5.13;;;1.60;99.90;;;;;;4966722;28;20758;-59
2024/02/05 08:10:26;;;;;;;8.43;4.67;;;1.60;99.90;;;;;;4967198;28;20448;-59
2024/02/05 08:12:51;;;;;;;15.37;5.13;;;1.70;99.90;;;;;;4960300;28;20176;-59
2024/02/05 08:15:17;;;;;;;16.97;6.30;;;1.70;99.90;;;;;;4970553;28;20557;-59
2024/02/05 08:17:42;;;;;;;7.83;5.00;;;1.70;99.90;;;;;;4968143;28;20201;-59
2024/02/05 08:20:09;;;;;;;9.53;5.30;;;1.80;99.90;;;;;;4965059;28;20563;-59
2024/02/05 08:22:34;;;;;;;8.20;4.63;;;1.80;99.90;;;;;;4968210;28;20255;-59
2024/02/05 08:25:00;;;;;;;11.60;5.20;;;1.80;99.90;;;;;;4968959;28;20927;-60
2024/02/05 08:27:26;;;;;;;10.50;5.13;;;1.90;99.90;;;;;;4968587;28;20213;-59
2024/02/05 08:29:51;;;;;;;10.17;4.70;;;1.90;99.90;;;;;;4969155;28;20204;-59
2024/02/05 08:32:17;;;;;;;10.67;4.77;;;2.00;99.90;;;;;;4969594;28;20563;-59
2024/02/05 08:34:43;;;;;;;6.97;4.37;;;2.00;99.90;;;;;;4969954;28;20547;-59
2024/02/05 08:37:09;;;;;;;11.97;5.20;;;2.10;99.90;;;;;;4964860;28;20485;-58
2024/02/05 08:39:35;;;;;;;6.90;4.90;;;2.20;99.90;;;;;;4969771;28;20174;-60
2024/02/05 08:42:01;;;;;;;9.00;4.57;;;2.20;99.90;;;;;;4969079;28;20476;-60
2024/02/05 08:44:27;;;;;;;10.33;4.70;;;2.30;99.90;;;;;;4966869;28;20428;-60
2024/02/05 08:46:56;;;;;;;6.20;4.00;;;2.30;99.90;;;;;;4965524;28;20212;-60
2024/02/05 08:49:22;;;;;;;11.07;4.77;;;2.40;99.90;;;;;;4966844;28;20546;-59
2024/02/05 08:51:47;;;;;;;10.77;5.20;;;2.40;99.90;;;;;;4967099;28;20500;-59
2024/02/05 08:54:13;;;;;;;12.67;5.77;;;2.50;99.90;;;;;;4968970;28;20480;-60
2024/02/05 08:56:39;;;;;;;8.80;5.10;;;2.50;99.90;;;;;;4968320;28;20174;-60
2024/02/05 08:59:05;;;;;;;12.17;4.80;;;2.50;99.90;;;;;;4966898;28;20180;-59
2024/02/05 09:01:31;;;;;;;7.53;4.57;;;2.50;99.90;;;;;;4963028;28;20491;-60
2024/02/05 09:03:57;;;;;;;8.90;4.63;;;2.50;99.90;;;;;;4964711;28;20447;-60
2024/02/05 09:06:22;;;;;;;9.40;5.03;;;2.60;99.90;;;;;;4970430;28;20178;-60
2024/02/05 09:08:49;;;;;;;6.53;4.57;;;2.60;99.90;;;;;;4969630;28;20462;-60
2024/02/05 09:11:14;;;;;;;7.70;4.43;;;2.60;99.90;;;;;;4969988;28;20222;-59
2024/02/05 09:13:40;;;;;;;5.57;4.00;;;2.60;99.90;;;;;;4972091;28;21036;-60
2024/02/05 09:16:06;;;;;;;4.97;3.50;;;2.60;99.90;;;;;;4968423;28;20181;-60
2024/02/05 09:18:31;;;;;;;6.90;4.17;;;2.60;99.90;;;;;;4968249;28;20614;-60
2024/02/05 09:20:57;;;;;;;13.00;4.73;;;2.60;99.90;;;;;;4974156;28;20207;-59
2024/02/05 09:23:23;;;;;;;7.50;5.10;;;2.70;99.90;;;;;;4970260;28;20185;-60
2024/02/05 09:25:48;;;;;;;7.20;4.17;;;2.70;99.90;;;;;;4969449;28;20216;-60
2024/02/05 09:28:14;;;;;;;5.50;4.77;;;2.80;99.90;;;;;;4965967;28;20747;-59
2024/02/05 09:30:40;;;;;;;6.77;4.20;;;2.90;99.90;;;;;;4970004;28;20205;-59
2024/02/05 09:33:08;;;;;;;7.10;3.93;;;3.00;99.90;;;;;;4964741;28;20180;-59
2024/02/05 09:35:35;;;;;;;17.87;5.47;;;3.20;99.90;;;;;;4972251;28;20185;-60
2024/02/05 09:38:01;;;;;;;20.87;5.57;;;3.30;99.90;;;;;;4971606;28;20435;-60
2024/02/05 09:40:28;;;;;;;12.43;5.10;;;3.50;99.90;;;;;;4975323;28;20464;-59
2024/02/05 09:42:56;;;;;;;11.17;4.50;;;3.70;99.90;;;;;;4974793;28;20425;-59
2024/02/05 09:45:27;;;;;;;9.17;4.50;;;3.90;99.90;;;;;;4970912;28;20475;-59
2024/02/05 09:47:55;;;;;;;9.17;5.00;;;4.10;99.90;;;;;;4965971;28;20471;-60
2024/02/05 09:50:24;;;;;;;10.60;4.90;;;4.40;99.90;;;;;;4968286;28;20430;-60
2024/02/05 09:52:50;;;;;;;6.43;4.50;;;4.60;99.90;;;;;;4971630;28;20443;-60
2024/02/05 09:55:19;;;;;;;12.17;4.97;;;4.90;99.90;;;;;;4971651;28;20429;-60
2024/02/05 09:57:45;;;;;;;7.30;4.83;;;5.00;99.90;;;;;;4969047;28;20598;-59
2024/02/05 10:00:11;;;;;;;7.77;4.17;;;5.20;99.90;;;;;;4969225;28;20420;-59
2024/02/05 10:02:38;;;;;;;6.80;4.20;;;5.40;99.90;;;;;;4971127;28;20438;-59
2024/02/05 10:05:10;;;;;;;9.03;4.70;;;5.60;99.90;;;;;;4968174;28;21010;-59
2024/02/05 10:07:39;;;;;;;13.77;3.57;;;5.70;99.90;;;;;;4970817;28;20757;-60
2024/02/05 10:10:05;;;;;;;6.27;2.80;;;5.80;99.90;;;;;;4973861;28;20453;-60
2024/02/05 10:12:35;;;;;;;7.57;2.67;;;6.00;99.90;;;;;;4966487;28;20436;-60
2024/02/05 10:15:03;;;;;;;3.73;2.80;;;6.10;99.90;;;;;;4969517;28;20417;-59
2024/02/05 10:17:29;;;;;;;4.67;2.67;;;6.30;99.90;;;;;;4969882;28;21074;-60
2024/02/05 10:19:54;;;;;;;5.60;2.67;;;6.40;99.90;;;;;;4974048;28;20437;-59
2024/02/05 10:22:21;;;;;;;4.57;2.40;;;6.50;99.90;;;;;;4966155;28;20630;-59
2024/02/05 10:24:47;;;;;;;4.00;2.40;;;6.50;99.90;;;;;;4969906;28;20546;-60
2024/02/05 10:27:17;;;;;;;3.43;2.40;;;6.60;99.90;;;;;;4970738;28;20447;-59
2024/02/05 10:29:43;;;;;;;2.17;1.97;;;6.70;99.90;;;;;;4970402;28;20540;-60
2024/02/05 10:32:08;;;;;;;6.93;2.43;;;6.80;99.90;;;;;;4968374;28;20516;-59
2024/02/05 10:34:34;;;;;;;4.87;3.10;;;6.80;99.90;;;;;;4969023;28;20555;-59
2024/02/05 10:37:08;;;;;;;4.73;2.17;;;6.80;99.90;;;;;;4970516;28;20197;-60
2024/02/05 10:39:34;;;;;;;3.10;2.00;;;6.90;99.20;;;;;;4968131;28;20207;-60
2024/02/05 10:41:59;;;;;;;3.40;2.23;;;6.90;97.70;;;;;;4970956;28;20435;-59
2024/02/05 10:44:26;;;;;;;3.53;2.00;;;7.00;98.20;;;;;;4970573;28;20209;-60
2024/02/05 10:46:51;;;;;;;2.70;2.00;;;7.00;98.10;;;;;;4970708;28;20593;-60
2024/02/05 10:49:17;;;;;;;5.27;2.73;;;7.10;97.20;;;;;;4969295;28;20465;-60
2024/02/05 10:51:44;;;;;;;2.57;2.10;;;7.30;96.60;;;;;;4967177;28;20174;-59
2024/02/05 10:54:10;;;;;;;3.00;2.53;;;7.40;95.10;;;;;;4970750;28;20170;-58
2024/02/05 10:56:39;;;;;;;6.40;2.33;;;7.50;95.20;;;;;;4968494;28;20424;-59
2024/02/05 10:59:05;;;;;;;3.40;2.30;;;7.60;96.70;;;;;;4971495;28;20418;-60
2024/02/05 11:02:01;;;;;;;5.13;2.00;;;7.80;94.50;;;;;;4970069;28;20468;-60
2024/02/05 11:04:29;;;;;;;2.50;1.80;;;8.00;94.20;;;;;;4960377;28;20194;-60
2024/02/05 11:06:58;;;;;;;4.10;2.10;;;8.20;91.80;;;;;;4967965;28;20996;-60
2024/02/05 11:09:24;;;;;;;3.27;2.33;;;8.30;85.40;;;;;;4966884;28;20465;-62
2024/02/05 11:11:55;;;;;;;5.93;2.40;;;8.40;84.10;;;;;;4999706;23;20589;-54
2024/02/05 11:14:22;;;;;;;4.10;2.10;;;8.40;82.60;;;;;;5003999;28;20230;-56
2024/02/05 11:16:48;;;;;;;8.93;2.77;;;8.50;80.60;;;;;;5003138;28;20845;-56
2024/02/05 11:19:17;;;;;;;6.10;2.47;;;8.50;79.50;;;;;;5006635;28;20408;-56
2024/02/05 11:21:57;;;;;;;4.43;2.80;;;8.60;78.60;;;;;;5006470;28;20446;-57
2024/02/05 11:24:23;;;;;;;5.67;2.73;;;8.70;78.20;;;;;;5008715;28;20427;-57
2024/02/05 11:26:51;;;;;;;6.33;2.63;;;8.80;76.80;;;;;;5007026;28;20557;-56
2024/02/05 11:29:24;;;;;;;6.70;3.00;;;8.80;77.60;;;;;;5008363;28;20459;-56
2024/02/05 11:31:52;;;;;;;7.00;3.43;;;8.90;75.90;;;;;;5002836;28;20914;-56
2024/02/05 11:34:19;;;;;;;5.30;3.40;;;9.10;76.50;;;;;;5006422;28;20403;-58
2024/02/05 11:36:45;;;;;;;4.97;3.70;;;9.20;74.40;;;;;;5003980;28;21151;-55
2024/02/05 11:39:11;;;;;;;11.67;4.07;;;9.30;74.60;;;;;;5004850;28;20829;-56
2024/02/05 11:41:37;;;;;;;6.33;3.80;;;9.50;74.20;;;;;;5006023;28;20470;-57
2024/02/05 11:44:14;;;;;;;8.00;4.50;;;9.70;71.70;;;;;;5006476;28;20263;-56
2024/02/05 11:46:41;;;;;;;9.87;5.77;;;9.80;70.50;;;;;;5008395;28;20199;-56
2024/02/05 11:49:07;;;;;;;7.17;4.17;;;9.90;69.90;;;;;;5006780;28;20463;-57
2024/02/05 11:51:32;;;;;;;6.20;4.53;;;10.00;67.60;;;;;;5001606;28;20920;-57
2024/02/05 11:53:59;;;;;;;9.23;4.40;;;10.10;67.80;;;;;;5004954;28;20271;-57
2024/02/05 11:56:25;;;;;;;11.70;4.70;;;10.20;66.30;;;;;;5003939;28;20180;-57
2024/02/05 11:58:50;;;;;;;5.43;3.50;;;10.30;66.10;;;;;;5001223;28;20478;-57
2024/02/05 12:01:17;;;;;;;6.17;4.13;;;10.30;65.00;;;;;;4998855;28;20432;-58
2024/02/05 12:03:45;;;;;;;8.80;3.97;;;10.40;64.70;;;;;;5003638;28;20182;-55
2024/02/05 12:06:15;;;;;;;6.47;3.40;;;10.50;64.20;;;;;;5004658;28;20462;-57
2024/02/05 12:08:45;;;;;;;8.30;3.37;;;10.70;64.20;;;;;;5000051;28;20464;-57
2024/02/05 12:11:12;;;;;;;5.83;3.17;;;10.90;63.80;;;;;;5006868;28;20531;-55
2024/02/05 12:13:39;;;;;;;4.87;3.30;;;11.10;63.10;;;;;;5012680;28;20457;-57
2024/02/05 12:16:11;;;;;;;8.90;3.20;;;11.30;63.20;;;;;;5007566;28;20435;-57
2024/02/05 12:18:38;;;;;;;4.93;3.20;;;11.50;63.00;;;;;;5004180;28;20426;-56
2024/02/05 12:21:06;;;;;;;6.43;2.60;;;11.70;62.00;;;;;;5000583;28;20436;-57
2024/02/05 12:23:33;;;;;;;5.10;2.17;;;11.80;60.80;;;;;;5003902;28;20451;-57
2024/02/05 12:26:01;;;;;;;2.90;2.60;;;11.90;60.20;;;;;;5005315;28;20934;-57
2024/02/05 12:28:28;;;;;;;6.40;2.70;;;12.00;60.10;;;;;;5003138;28;20455;-55
2024/02/05 12:30:58;;;;;;;7.83;2.90;;;12.20;60.10;;;;;;5005176;28;20439;-57
2024/02/05 12:33:26;;;;;;;5.23;3.20;;;12.30;59.00;;;;;;5010582;28;20427;-57
2024/02/05 12:36:03;;;;;;;4.20;2.60;;;12.40;58.70;;;;;;4999049;28;20930;-57
2024/02/05 12:38:30;;;;;;;8.57;2.40;;;12.40;58.30;;;;;;5007687;28;20415;-57
2024/02/05 12:40:56;;;;;;;3.90;2.83;;;12.50;57.70;;;;;;5012428;28;20522;-55
2024/02/05 12:43:24;;;;;;;6.23;2.73;;;12.60;57.60;;;;;;5014240;28;20441;-55
2024/02/05 12:45:53;;;;;;;5.33;2.67;;;12.70;57.70;;;;;;5009228;28;20427;-55
2024/02/05 12:48:22;;;;;;;4.50;2.20;;;12.70;57.30;;;;;;5003805;28;20435;-55
2024/02/05 12:50:52;;;;;;;5.53;1.93;;;12.90;57.80;;;;;;5006519;28;20865;-55